Time;durP1;ratioP1;P1;durP2;ratioP2;P2;SDS_P1;SDS_P2;PMS_P1;PMS_P2;Temp;Humidity;BMP_temperature;BMP_pressure;BME280_temperature;BME280_humidity;BME280_pressure;Samples;Min_cycle;Max_cycle;Signal;HPM_P1;HPM_P2
2022/07/13 00:02:19;;;;;;;2.27;1.50;;;17.20;97.30;;;;;;5054000;28;20453;-84
2022/07/13 00:04:45;;;;;;;2.20;1.63;;;17.10;97.30;;;;;;5072521;28;20183;-84
2022/07/13 00:07:10;;;;;;;2.17;2.00;;;17.10;97.30;;;;;;5060705;28;20205;-85
2022/07/13 00:09:36;;;;;;;1.70;1.50;;;17.10;97.30;;;;;;5054633;28;20219;-84
2022/07/13 00:12:02;;;;;;;4.17;2.07;;;17.10;97.30;;;;;;5054352;28;20179;-84
2022/07/13 00:14:27;;;;;;;1.40;1.30;;;17.00;97.30;;;;;;5070701;28;20186;-84
2022/07/13 00:16:53;;;;;;;1.13;1.13;;;17.00;97.30;;;;;;5070774;28;20186;-84
2022/07/13 00:19:18;;;;;;;1.77;1.70;;;17.00;97.30;;;;;;5053457;28;20219;-84
2022/07/13 00:21:44;;;;;;;2.20;2.00;;;16.90;97.30;;;;;;5055186;28;20175;-84
2022/07/13 00:24:09;;;;;;;5.77;1.80;;;16.80;97.30;;;;;;5053618;28;20175;-84
2022/07/13 00:26:35;;;;;;;1.83;1.83;;;16.80;97.30;;;;;;5053869;28;20203;-84
2022/07/13 00:29:00;;;;;;;1.77;1.67;;;16.80;97.30;;;;;;5071822;28;20700;-84
2022/07/13 00:31:26;;;;;;;1.50;1.40;;;16.70;97.30;;;;;;5053033;28;20293;-84
2022/07/13 00:33:52;;;;;;;1.30;1.20;;;16.60;97.30;;;;;;5053554;28;20182;-85
2022/07/13 00:36:17;;;;;;;2.07;1.50;;;16.50;97.30;;;;;;5050803;28;20179;-84
2022/07/13 00:38:43;;;;;;;1.83;1.63;;;16.50;97.30;;;;;;5064830;28;20237;-85
2022/07/13 00:41:08;;;;;;;2.57;2.37;;;16.50;97.30;;;;;;5060887;28;20574;-84
2022/07/13 00:43:34;;;;;;;1.67;1.27;;;16.50;97.30;;;;;;5043685;28;20683;-85
2022/07/13 00:46:00;;;;;;;6.50;1.20;;;16.50;97.30;;;;;;5067670;28;20373;-85
2022/07/13 00:48:26;;;;;;;1.77;1.70;;;16.60;97.30;;;;;;5053260;28;20199;-85
2022/07/13 00:50:52;;;;;;;1.67;1.47;;;16.60;97.30;;;;;;5053504;28;20649;-84
2022/07/13 00:53:18;;;;;;;2.00;1.90;;;16.50;97.30;;;;;;5053287;28;20425;-84
2022/07/13 00:55:47;;;;;;;1.57;1.33;;;16.50;97.30;;;;;;5040422;28;20182;-84
2022/07/13 00:58:13;;;;;;;1.50;1.40;;;16.50;97.30;;;;;;5052610;28;20441;-84
2022/07/13 01:00:38;;;;;;;1.57;1.47;;;16.50;97.30;;;;;;5070277;28;20409;-83
2022/07/13 01:03:04;;;;;;;1.47;1.40;;;16.50;97.30;;;;;;5049765;28;20241;-84
2022/07/13 01:05:30;;;;;;;5.70;1.83;;;16.50;97.30;;;;;;5067448;28;20198;-84
2022/07/13 01:07:56;;;;;;;1.80;1.70;;;16.50;97.30;;;;;;5051987;28;20222;-84
2022/07/13 01:10:22;;;;;;;1.73;1.30;;;16.50;97.30;;;;;;5049468;28;20407;-85
2022/07/13 01:12:48;;;;;;;2.70;1.53;;;16.50;97.30;;;;;;5044812;28;20428;-84
2022/07/13 01:15:15;;;;;;;1.23;1.13;;;16.50;97.30;;;;;;5052600;28;20179;-84
2022/07/13 01:17:41;;;;;;;2.50;2.37;;;16.50;97.30;;;;;;5052277;28;20198;-84
2022/07/13 01:20:08;;;;;;;1.40;1.30;;;16.50;97.30;;;;;;5053324;28;20428;-84
2022/07/13 01:22:41;;;;;;;1.83;1.63;;;16.50;97.30;;;;;;5052666;28;20466;-84
2022/07/13 01:25:08;;;;;;;2.13;1.50;;;16.50;97.30;;;;;;5053297;28;20470;-84
2022/07/13 01:27:37;;;;;;;3.20;2.47;;;16.50;97.30;;;;;;5052021;28;20475;-84
2022/07/13 01:30:05;;;;;;;2.90;1.57;;;16.60;97.30;;;;;;5044716;28;20485;-84
2022/07/13 01:32:49;;;;;;;2.30;1.80;;;16.60;97.30;;;;;;5045602;28;20425;-84
2022/07/13 01:35:15;;;;;;;22.00;3.13;;;16.60;97.30;;;;;;5040346;28;20589;-84
2022/07/13 01:37:42;;;;;;;1.30;1.20;;;16.60;97.30;;;;;;5063918;28;20980;-84
2022/07/13 01:40:08;;;;;;;1.67;1.33;;;16.60;97.30;;;;;;5053362;28;20429;-84
2022/07/13 01:42:45;;;;;;;2.30;2.00;;;16.70;97.30;;;;;;5069465;28;20421;-84
2022/07/13 01:45:13;;;;;;;1.60;1.50;;;16.70;97.30;;;;;;5071310;28;22348;-83
2022/07/13 01:47:47;;;;;;;1.37;1.17;;;16.70;97.30;;;;;;5067177;28;20438;-84
2022/07/13 01:50:14;;;;;;;2.63;1.50;;;16.70;97.30;;;;;;5062888;28;20428;-84
2022/07/13 01:52:39;;;;;;;6.73;2.87;;;16.70;97.30;;;;;;5071304;28;20441;-84
2022/07/13 01:55:07;;;;;;;2.73;1.93;;;16.70;97.30;;;;;;5072035;28;20429;-84
2022/07/13 01:57:33;;;;;;;2.00;1.73;;;16.70;97.30;;;;;;5071158;28;20202;-84
2022/07/13 02:00:00;;;;;;;1.60;1.53;;;16.70;97.30;;;;;;5056658;28;20418;-84
2022/07/13 02:02:26;;;;;;;1.53;1.40;;;16.80;97.30;;;;;;5065652;28;20186;-84
2022/07/13 02:04:52;;;;;;;2.27;1.77;;;16.80;97.30;;;;;;5051961;28;20421;-84
2022/07/13 02:07:17;;;;;;;1.87;1.80;;;16.80;97.30;;;;;;5047368;28;20558;-84
2022/07/13 02:09:43;;;;;;;1.37;1.30;;;16.80;97.30;;;;;;5057409;28;20210;-84
2022/07/13 02:12:09;;;;;;;2.40;1.40;;;16.80;97.30;;;;;;5052117;28;20272;-84
2022/07/13 02:14:34;;;;;;;2.40;1.77;;;16.80;97.30;;;;;;5057336;28;20672;-84
2022/07/13 02:17:00;;;;;;;1.87;1.77;;;16.80;97.30;;;;;;5054690;28;20175;-84
2022/07/13 02:19:25;;;;;;;1.47;1.37;;;16.80;97.30;;;;;;5058273;28;20262;-84
2022/07/13 02:21:51;;;;;;;2.50;1.73;;;16.80;97.30;;;;;;5072807;28;20187;-84
2022/07/13 02:24:16;;;;;;;1.60;1.50;;;16.80;97.30;;;;;;5058921;28;20614;-84
2022/07/13 02:26:42;;;;;;;2.50;1.90;;;16.90;97.30;;;;;;5054948;28;20207;-84
2022/07/13 02:29:07;;;;;;;1.87;1.50;;;16.90;97.30;;;;;;5079170;28;20273;-84
2022/07/13 02:31:35;;;;;;;2.50;1.83;;;16.90;97.30;;;;;;5060210;28;20621;-84
2022/07/13 02:34:01;;;;;;;3.43;2.33;;;16.90;97.30;;;;;;5055932;28;20186;-84
2022/07/13 02:36:26;;;;;;;1.80;1.33;;;17.00;97.30;;;;;;5064288;28;20422;-84
2022/07/13 02:38:52;;;;;;;1.33;1.30;;;17.00;97.30;;;;;;5069474;28;20725;-84
2022/07/13 02:41:17;;;;;;;3.00;1.40;;;17.00;97.30;;;;;;5055628;28;20182;-84
2022/07/13 02:43:43;;;;;;;1.53;1.47;;;17.00;97.30;;;;;;5056129;28;20191;-84
2022/07/13 02:46:08;;;;;;;2.40;1.40;;;17.00;97.30;;;;;;5056147;28;20207;-86
2022/07/13 02:48:34;;;;;;;2.00;1.73;;;17.00;97.30;;;;;;5083961;28;20213;-83
2022/07/13 02:51:00;;;;;;;2.80;1.60;;;17.00;97.30;;;;;;5055965;28;20539;-83
2022/07/13 02:53:25;;;;;;;1.90;1.43;;;17.00;97.30;;;;;;5066463;28;20186;-84
2022/07/13 02:55:51;;;;;;;1.20;1.10;;;17.00;97.30;;;;;;5071766;28;20206;-84
2022/07/13 02:58:16;;;;;;;1.73;1.53;;;17.00;97.30;;;;;;5060009;28;20221;-82
2022/07/13 03:00:42;;;;;;;1.77;1.70;;;16.90;97.30;;;;;;5060857;28;20202;-86
2022/07/13 03:03:08;;;;;;;1.37;1.30;;;16.90;97.30;;;;;;5055315;28;20175;-86
2022/07/13 03:05:33;;;;;;;2.37;2.17;;;16.90;97.30;;;;;;5083390;28;20294;-85
2022/07/13 03:07:59;;;;;;;1.80;1.70;;;16.90;97.30;;;;;;5090488;28;20225;-84
2022/07/13 03:10:24;;;;;;;1.37;1.27;;;16.90;97.30;;;;;;5074132;28;20183;-85
2022/07/13 03:12:50;;;;;;;1.83;1.77;;;16.90;97.30;;;;;;5051544;28;20206;-84
2022/07/13 03:15:16;;;;;;;3.80;2.03;;;16.90;97.30;;;;;;5053885;28;20187;-84
2022/07/13 03:17:41;;;;;;;1.67;1.10;;;16.90;97.30;;;;;;5055324;28;20194;-84
2022/07/13 03:20:08;;;;;;;1.20;1.10;;;16.90;97.30;;;;;;5054647;28;20190;-84
2022/07/13 03:22:34;;;;;;;1.80;1.23;;;16.90;97.30;;;;;;5055267;28;20385;-84
2022/07/13 03:25:00;;;;;;;1.67;1.50;;;16.90;97.30;;;;;;5055173;28;20428;-84
2022/07/13 03:27:25;;;;;;;2.33;2.00;;;17.00;97.30;;;;;;5055023;28;20195;-84
2022/07/13 03:29:51;;;;;;;3.10;1.90;;;17.00;97.30;;;;;;5054590;28;20595;-84
2022/07/13 03:32:17;;;;;;;1.93;1.87;;;16.90;97.30;;;;;;5055067;28;20175;-84
2022/07/13 03:34:42;;;;;;;2.33;2.00;;;16.90;97.30;;;;;;5055673;28;20179;-84
2022/07/13 03:37:08;;;;;;;1.37;1.37;;;16.90;97.30;;;;;;5059082;28;20537;-84
2022/07/13 03:39:35;;;;;;;1.93;1.87;;;17.00;97.30;;;;;;5061646;28;20211;-85
2022/07/13 03:42:24;;;;;;;4.17;1.77;;;17.00;97.30;;;;;;5054915;28;20633;-84
2022/07/13 03:45:06;;;;;;;3.63;2.00;;;17.00;97.30;;;;;;5045109;28;20427;-84
2022/07/13 03:47:34;;;;;;;3.33;1.83;;;17.00;97.30;;;;;;5051573;28;20451;-84
2022/07/13 03:50:05;;;;;;;1.73;1.63;;;17.00;97.30;;;;;;5071572;28;20793;-84
2022/07/13 03:52:35;;;;;;;2.20;2.00;;;17.00;97.30;;;;;;5066647;28;20469;-84
2022/07/13 03:55:05;;;;;;;1.30;1.20;;;17.00;97.30;;;;;;5039494;28;20940;-84
2022/07/13 03:57:35;;;;;;;1.60;1.40;;;17.00;97.30;;;;;;5071165;28;20437;-84
2022/07/13 04:00:06;;;;;;;4.90;1.60;;;17.00;97.30;;;;;;5060867;28;20425;-84
2022/07/13 04:02:31;;;;;;;1.30;1.30;;;17.00;97.30;;;;;;5040460;28;20724;-84
2022/07/13 04:04:57;;;;;;;2.40;2.20;;;17.00;97.30;;;;;;5050950;28;20501;-84
2022/07/13 04:07:22;;;;;;;1.50;1.50;;;17.10;97.30;;;;;;5052122;28;20286;-84
2022/07/13 04:09:48;;;;;;;1.13;1.10;;;17.10;97.30;;;;;;5070465;28;20218;-84
2022/07/13 04:12:24;;;;;;;1.97;1.73;;;17.10;97.30;;;;;;5073419;28;20183;-84
2022/07/13 04:14:55;;;;;;;1.73;1.63;;;17.10;97.30;;;;;;5082588;28;20182;-83
2022/07/13 04:17:24;;;;;;;1.13;1.03;;;17.10;97.30;;;;;;5075167;28;20506;-85
2022/07/13 04:19:54;;;;;;;2.20;1.43;;;17.10;97.30;;;;;;5065172;28;20441;-85
2022/07/13 04:22:24;;;;;;;0.93;0.90;;;17.10;97.30;;;;;;5047127;28;20536;-85
2022/07/13 04:24:53;;;;;;;1.47;1.23;;;17.10;97.30;;;;;;5052286;28;20421;-85
2022/07/13 04:27:18;;;;;;;2.40;1.30;;;17.20;97.30;;;;;;5053872;28;20536;-84
2022/07/13 04:29:44;;;;;;;4.67;1.73;;;17.20;97.30;;;;;;5072782;28;20508;-85
2022/07/13 04:32:10;;;;;;;2.47;2.27;;;17.20;97.30;;;;;;5053556;28;20184;-84
2022/07/13 04:34:35;;;;;;;1.50;1.40;;;17.20;97.30;;;;;;5054487;28;20183;-85
2022/07/13 04:37:01;;;;;;;1.43;1.40;;;17.20;97.30;;;;;;5053864;28;20213;-85
2022/07/13 04:39:26;;;;;;;1.23;1.20;;;17.30;97.30;;;;;;5053824;28;20675;-84
2022/07/13 04:41:52;;;;;;;1.83;1.30;;;17.30;97.30;;;;;;5052556;28;20641;-84
2022/07/13 04:44:18;;;;;;;3.73;1.63;;;17.30;97.30;;;;;;5053367;28;20186;-84
2022/07/13 04:46:43;;;;;;;2.70;1.87;;;17.40;97.30;;;;;;5052999;28;20232;-84
2022/07/13 04:49:09;;;;;;;4.10;1.40;;;17.40;97.30;;;;;;5053195;28;20194;-83
2022/07/13 04:51:38;;;;;;;1.17;1.07;;;17.40;97.30;;;;;;5052950;28;20413;-83
2022/07/13 04:54:03;;;;;;;2.47;1.83;;;17.40;97.30;;;;;;5053602;28;20176;-84
2022/07/13 04:56:29;;;;;;;1.10;1.00;;;17.50;97.30;;;;;;5053024;28;20795;-84
2022/07/13 04:58:54;;;;;;;2.10;1.37;;;17.50;97.30;;;;;;5052993;28;20572;-84
2022/07/13 05:01:20;;;;;;;1.53;1.10;;;17.60;97.30;;;;;;5070937;28;20244;-83
2022/07/13 05:03:46;;;;;;;1.93;1.50;;;17.60;97.30;;;;;;5053116;28;20262;-84
2022/07/13 05:06:13;;;;;;;1.87;1.73;;;17.70;97.30;;;;;;5052875;28;20207;-84
2022/07/13 05:08:40;;;;;;;1.20;1.10;;;17.70;97.30;;;;;;5049755;28;20239;-84
2022/07/13 05:11:05;;;;;;;7.83;3.10;;;17.70;97.30;;;;;;5049599;28;20421;-84
2022/07/13 05:13:31;;;;;;;1.90;1.83;;;17.80;97.30;;;;;;5051772;28;20644;-84
2022/07/13 05:15:57;;;;;;;1.90;1.33;;;17.90;97.30;;;;;;5046412;28;20298;-84
2022/07/13 05:18:22;;;;;;;1.60;1.50;;;17.90;97.30;;;;;;5049967;28;20551;-84
2022/07/13 05:20:48;;;;;;;2.60;1.53;;;18.00;97.30;;;;;;5066490;28;20422;-84
2022/07/13 05:23:14;;;;;;;1.43;1.33;;;18.00;97.30;;;;;;5066484;28;20275;-84
2022/07/13 05:25:39;;;;;;;1.43;1.40;;;18.10;97.30;;;;;;5045875;28;20581;-83
2022/07/13 05:28:05;;;;;;;1.57;1.50;;;18.10;97.30;;;;;;5059254;28;20639;-84
2022/07/13 05:30:31;;;;;;;1.30;1.20;;;18.20;97.30;;;;;;5066218;28;20545;-84
2022/07/13 05:32:56;;;;;;;1.73;1.40;;;18.20;97.30;;;;;;5049081;28;20662;-84
2022/07/13 05:35:22;;;;;;;2.03;1.90;;;18.20;97.30;;;;;;5048888;28;20207;-85
2022/07/13 05:37:47;;;;;;;1.33;1.10;;;18.30;97.30;;;;;;5049075;28;20206;-85
2022/07/13 05:40:13;;;;;;;2.20;2.03;;;18.30;97.30;;;;;;5066273;28;20179;-85
2022/07/13 05:42:39;;;;;;;2.13;1.80;;;18.40;97.30;;;;;;5049387;28;20194;-84
2022/07/13 05:45:05;;;;;;;2.97;1.90;;;18.40;97.30;;;;;;5048738;28;20172;-84
2022/07/13 05:47:31;;;;;;;2.23;1.47;;;18.50;97.30;;;;;;5049357;28;20445;-85
2022/07/13 05:49:56;;;;;;;1.30;1.20;;;18.50;97.30;;;;;;5035515;28;20418;-85
2022/07/13 05:52:22;;;;;;;1.23;1.13;;;18.60;97.30;;;;;;5049110;28;20225;-85
2022/07/13 05:54:47;;;;;;;1.63;1.30;;;18.60;97.30;;;;;;5054398;28;20179;-84
2022/07/13 05:57:13;;;;;;;2.70;2.20;;;18.70;97.30;;;;;;5053136;28;20179;-85
2022/07/13 05:59:38;;;;;;;4.87;2.30;;;18.80;97.30;;;;;;5048632;28;20191;-85
2022/07/13 06:02:04;;;;;;;1.27;1.13;;;18.80;97.30;;;;;;5053879;28;20206;-85
2022/07/13 06:04:30;;;;;;;1.60;1.50;;;18.90;97.30;;;;;;5053226;28;20637;-84
2022/07/13 06:06:55;;;;;;;1.57;1.47;;;18.90;97.30;;;;;;5053832;28;20245;-84
2022/07/13 06:09:23;;;;;;;3.10;1.40;;;19.00;97.30;;;;;;5061052;28;20720;-85
2022/07/13 06:11:48;;;;;;;7.23;2.60;;;19.10;96.90;;;;;;5049251;28;20718;-85
2022/07/13 06:14:14;;;;;;;1.10;1.00;;;19.20;96.70;;;;;;5052118;28;20418;-87
2022/07/13 06:16:41;;;;;;;3.23;1.70;;;19.20;96.40;;;;;;5043454;28;20245;-87
2022/07/13 06:19:17;;;;;;;1.73;1.50;;;19.30;96.40;;;;;;5050421;28;20231;-85
2022/07/13 06:21:42;;;;;;;1.27;1.17;;;19.40;95.80;;;;;;5067779;28;20452;-85
2022/07/13 06:24:08;;;;;;;1.57;1.30;;;19.40;95.90;;;;;;5046350;28;20407;-86
2022/07/13 06:26:36;;;;;;;1.60;1.50;;;19.50;95.60;;;;;;5049005;28;20207;-86
2022/07/13 06:29:07;;;;;;;2.27;1.83;;;19.60;95.20;;;;;;5069157;28;20212;-86
2022/07/13 06:31:35;;;;;;;1.30;1.20;;;19.60;95.60;;;;;;5056120;28;20928;-85
2022/07/13 06:34:06;;;;;;;1.50;1.40;;;19.70;95.90;;;;;;5055669;28;20790;-84
2022/07/13 06:36:36;;;;;;;13.93;1.87;;;19.80;96.30;;;;;;5045088;28;20869;-87
2022/07/13 06:39:08;;;;;;;5.60;1.80;;;19.90;96.40;;;;;;5053021;28;20966;-83
2022/07/13 06:41:35;;;;;;;3.13;1.30;;;20.00;94.80;;;;;;5039212;28;20436;-84
2022/07/13 06:44:05;;;;;;;1.30;1.20;;;20.00;94.50;;;;;;5066710;28;20789;-83
2022/07/13 06:46:34;;;;;;;2.07;1.50;;;20.10;93.60;;;;;;5065868;28;20457;-84
2022/07/13 06:49:04;;;;;;;1.27;1.17;;;20.20;93.20;;;;;;5046111;28;20523;-83
2022/07/13 06:51:32;;;;;;;2.03;1.90;;;20.20;93.80;;;;;;5048145;28;20415;-83
2022/07/13 06:53:58;;;;;;;1.37;1.30;;;20.30;93.20;;;;;;5043550;28;20472;-83
2022/07/13 06:56:25;;;;;;;4.90;1.70;;;20.40;92.60;;;;;;5047872;28;20451;-83
2022/07/13 06:58:55;;;;;;;1.10;0.97;;;20.50;92.00;;;;;;5049001;28;20442;-84
2022/07/13 07:01:26;;;;;;;0.97;0.93;;;20.50;92.40;;;;;;5068142;28;20440;-83
2022/07/13 07:03:56;;;;;;;2.70;2.00;;;20.60;91.90;;;;;;5048701;28;20480;-83
2022/07/13 07:06:25;;;;;;;1.20;1.10;;;20.70;91.90;;;;;;5047621;28;20482;-83
2022/07/13 07:09:15;;;;;;;1.87;1.47;;;20.80;92.50;;;;;;5049719;28;20533;-83
2022/07/13 07:11:46;;;;;;;1.10;1.07;;;20.90;92.40;;;;;;5042722;28;20424;-83
2022/07/13 07:14:15;;;;;;;1.03;1.00;;;21.00;92.10;;;;;;5051374;28;20437;-83
2022/07/13 07:16:47;;;;;;;1.33;1.00;;;21.20;91.80;;;;;;5050721;28;20423;-83
2022/07/13 07:19:17;;;;;;;1.27;1.23;;;21.30;90.80;;;;;;5068002;28;20461;-83
2022/07/13 07:21:45;;;;;;;2.03;1.60;;;21.40;90.30;;;;;;5051388;28;20415;-84
2022/07/13 07:24:14;;;;;;;2.03;1.60;;;21.50;90.30;;;;;;5051300;28;20419;-83
2022/07/13 07:26:44;;;;;;;1.10;1.00;;;21.60;89.50;;;;;;5050639;28;20511;-83
2022/07/13 07:29:15;;;;;;;1.53;1.47;;;21.60;89.30;;;;;;5050705;28;20430;-83
2022/07/13 07:31:44;;;;;;;1.60;1.30;;;21.70;89.10;;;;;;5035563;28;20426;-83
2022/07/13 07:34:15;;;;;;;1.97;1.53;;;21.80;89.50;;;;;;5066759;28;20407;-83
2022/07/13 07:36:47;;;;;;;2.33;1.20;;;21.80;88.80;;;;;;5049658;28;20516;-82
2022/07/13 07:39:36;;;;;;;1.43;1.33;;;21.80;89.10;;;;;;5050926;28;20430;-83
2022/07/13 07:42:08;;;;;;;1.80;1.47;;;21.90;88.50;;;;;;5033474;28;20523;-84
2022/07/13 07:44:35;;;;;;;1.33;1.20;;;22.00;88.10;;;;;;5050008;28;21019;-84
2022/07/13 07:47:06;;;;;;;1.43;1.37;;;22.10;88.30;;;;;;5051013;28;20451;-83
2022/07/13 07:49:36;;;;;;;1.03;0.90;;;22.20;88.50;;;;;;5050952;28;20425;-83
2022/07/13 07:52:05;;;;;;;1.00;1.00;;;22.30;87.80;;;;;;5067749;28;20763;-83
2022/07/13 07:54:37;;;;;;;1.87;1.27;;;22.40;88.30;;;;;;5067330;28;20951;-83
2022/07/13 07:57:04;;;;;;;2.20;2.00;;;22.50;88.40;;;;;;5050987;28;20437;-83
2022/07/13 07:59:30;;;;;;;1.00;0.90;;;22.70;87.40;;;;;;5034252;28;20789;-83
2022/07/13 08:01:56;;;;;;;1.47;1.33;;;22.80;87.60;;;;;;5063663;28;20430;-83
2022/07/13 08:04:22;;;;;;;1.73;1.53;;;22.90;87.10;;;;;;5067057;28;20426;-83
2022/07/13 08:06:48;;;;;;;1.17;1.07;;;23.00;87.90;;;;;;5049958;28;20208;-83
2022/07/13 08:09:13;;;;;;;1.23;1.20;;;23.20;87.80;;;;;;5066171;28;20461;-84
2022/07/13 08:11:39;;;;;;;1.90;1.43;;;23.30;88.00;;;;;;5045145;28;20490;-83
2022/07/13 08:14:05;;;;;;;1.00;0.90;;;23.50;86.60;;;;;;5050158;28;20176;-83
2022/07/13 08:16:30;;;;;;;3.27;2.27;;;23.60;86.50;;;;;;5049702;28;20180;-82
2022/07/13 08:18:56;;;;;;;2.30;1.77;;;23.70;85.70;;;;;;5066859;28;20302;-83
2022/07/13 08:21:22;;;;;;;1.37;1.30;;;23.90;84.30;;;;;;5038873;28;20180;-83
2022/07/13 08:23:54;;;;;;;1.00;1.00;;;24.00;85.30;;;;;;5039980;28;20215;-83
2022/07/13 08:26:21;;;;;;;1.10;1.00;;;24.10;84.30;;;;;;5030074;28;20212;-83
2022/07/13 08:28:47;;;;;;;1.63;1.53;;;24.20;84.00;;;;;;5059085;28;20781;-83
2022/07/13 08:31:13;;;;;;;2.10;1.27;;;24.30;83.40;;;;;;5042257;28;20962;-83
2022/07/13 08:39:08;;;;;;;1.77;1.57;;;24.60;82.10;;;;;;5051809;28;20441;-83
2022/07/13 08:41:34;;;;;;;1.73;1.17;;;24.60;82.20;;;;;;5033563;28;20924;-82
2022/07/13 08:44:00;;;;;;;1.43;1.37;;;24.60;83.00;;;;;;5047045;28;20203;-83
2022/07/13 08:46:27;;;;;;;1.17;1.13;;;24.70;83.50;;;;;;5049987;28;20231;-83
2022/07/13 08:48:55;;;;;;;1.00;1.00;;;24.70;84.00;;;;;;5065882;28;20466;-83
2022/07/13 08:51:21;;;;;;;3.13;1.40;;;24.80;84.30;;;;;;5049525;28;20418;-83
2022/07/13 08:53:49;;;;;;;2.30;1.47;;;24.80;84.20;;;;;;5049730;28;20460;-83
2022/07/13 08:56:15;;;;;;;1.10;1.10;;;24.80;84.00;;;;;;5049104;28;20442;-83
2022/07/13 08:58:40;;;;;;;1.27;1.17;;;24.90;84.50;;;;;;5049547;28;20473;-83
2022/07/13 09:01:26;;;;;;;1.53;1.30;;;24.90;84.30;;;;;;5065578;28;20187;-83
2022/07/13 09:03:58;;;;;;;1.47;1.10;;;25.00;84.10;;;;;;5049314;28;20179;-83
2022/07/13 09:06:38;;;;;;;5.80;1.60;;;25.00;84.00;;;;;;5047524;28;20469;-83
2022/07/13 09:09:07;;;;;;;1.20;1.10;;;25.10;83.30;;;;;;5065715;28;20482;-83
2022/07/13 09:11:56;;;;;;;1.10;1.00;;;25.20;82.00;;;;;;5050273;28;20418;-83
2022/07/13 09:14:36;;;;;;;1.37;1.30;;;25.20;80.50;;;;;;5065761;28;20456;-83
2022/07/13 09:17:07;;;;;;;1.20;1.10;;;25.40;81.50;;;;;;5049732;28;20424;-83
2022/07/13 09:19:46;;;;;;;1.17;1.13;;;25.50;82.10;;;;;;5065956;28;20422;-84
2022/07/13 09:22:16;;;;;;;1.40;1.30;;;25.60;83.80;;;;;;5049221;28;20485;-83
2022/07/13 09:24:46;;;;;;;1.10;1.00;;;25.80;82.30;;;;;;5065861;28;20425;-83
2022/07/13 09:27:16;;;;;;;7.23;1.53;;;25.80;81.00;;;;;;5049016;28;20754;-83
2022/07/13 09:29:45;;;;;;;2.80;1.80;;;25.90;82.00;;;;;;5048757;28;20422;-83
2022/07/13 09:32:14;;;;;;;1.47;1.37;;;26.00;81.40;;;;;;5049890;28;20628;-82
2022/07/13 09:34:53;;;;;;;1.43;1.10;;;26.00;81.20;;;;;;5050615;28;20728;-83
2022/07/13 09:37:27;;;;;;;0.87;0.87;;;26.10;79.20;;;;;;5049866;28;20555;-83
2022/07/13 09:40:09;;;;;;;1.20;1.10;;;26.20;79.20;;;;;;5049911;28;20483;-83
2022/07/13 09:42:37;;;;;;;1.53;1.43;;;26.30;79.60;;;;;;5004641;28;20427;-83
2022/07/13 09:47:56;;;;;;;1.10;1.00;;;26.60;80.20;;;;;;5031231;28;20488;-83
2022/07/13 09:50:23;;;;;;;2.07;1.70;;;26.70;78.10;;;;;;5025528;28;20993;-83
2022/07/13 09:52:51;;;;;;;1.03;0.93;;;26.90;76.50;;;;;;5038430;28;20648;-83
2022/07/13 09:55:20;;;;;;;1.57;1.53;;;27.00;78.50;;;;;;5036708;28;20414;-83
2022/07/13 09:57:48;;;;;;;1.33;1.10;;;27.20;77.10;;;;;;5021921;28;21126;-83
2022/07/13 10:00:17;;;;;;;1.07;0.97;;;27.30;76.50;;;;;;5046011;28;20414;-81
2022/07/13 10:02:48;;;;;;;1.17;1.07;;;27.40;76.40;;;;;;5048455;28;20411;-82
2022/07/13 10:05:16;;;;;;;0.83;0.77;;;27.50;75.80;;;;;;5043027;28;20908;-83
2022/07/13 10:07:43;;;;;;;1.30;1.27;;;27.60;75.30;;;;;;5031764;28;20434;-85
2022/07/13 10:10:11;;;;;;;1.10;1.00;;;27.80;74.50;;;;;;5045554;28;20420;-83
2022/07/13 10:12:37;;;;;;;0.90;0.90;;;27.90;74.80;;;;;;5048958;28;20414;-83
2022/07/13 10:15:04;;;;;;;2.07;1.57;;;27.90;73.40;;;;;;5068743;28;20490;-81
2022/07/13 10:17:30;;;;;;;1.30;1.17;;;28.00;72.80;;;;;;5048465;28;20211;-83
2022/07/13 10:19:55;;;;;;;1.33;1.13;;;28.20;73.20;;;;;;5048659;28;20788;-83
2022/07/13 10:22:25;;;;;;;1.37;0.80;;;28.40;72.90;;;;;;5045759;28;20196;-83
2022/07/13 10:24:57;;;;;;;1.07;0.97;;;28.50;73.00;;;;;;5063677;28;20184;-84
2022/07/13 10:27:29;;;;;;;1.80;1.17;;;28.60;74.30;;;;;;5061565;28;20591;-83
2022/07/13 10:29:59;;;;;;;1.40;1.00;;;28.60;71.70;;;;;;5032335;28;20434;-83
2022/07/13 10:32:26;;;;;;;0.87;0.83;;;28.60;69.50;;;;;;5060533;28;20414;-84
2022/07/13 10:35:13;;;;;;;1.10;1.00;;;28.60;69.00;;;;;;5049804;28;20449;-83
2022/07/13 10:38:00;;;;;;;1.00;0.90;;;28.60;70.80;;;;;;5056235;28;20531;-83
2022/07/13 10:40:26;;;;;;;1.10;1.00;;;28.70;69.90;;;;;;5053686;28;20484;-83
2022/07/13 10:42:59;;;;;;;2.00;1.13;;;28.60;70.20;;;;;;5073974;28;20424;-83
2022/07/13 10:45:32;;;;;;;5.40;1.00;;;28.60;70.90;;;;;;5073412;28;20418;-83
2022/07/13 10:48:04;;;;;;;2.93;1.47;;;28.60;71.00;;;;;;5052440;28;20457;-83
2022/07/13 10:50:38;;;;;;;0.97;0.87;;;28.60;70.90;;;;;;5049869;28;20453;-83
2022/07/13 10:53:05;;;;;;;1.20;1.10;;;28.60;71.20;;;;;;5045763;28;20828;-83
2022/07/13 10:55:33;;;;;;;2.57;1.37;;;28.50;71.10;;;;;;5068561;28;20433;-82
2022/07/13 10:58:00;;;;;;;1.00;0.93;;;28.50;70.40;;;;;;5052312;28;20434;-83
2022/07/13 11:00:44;;;;;;;1.20;1.10;;;28.40;70.30;;;;;;5046206;28;20906;-84
2022/07/13 11:03:31;;;;;;;1.30;1.20;;;28.40;70.40;;;;;;5070592;28;20928;-83
2022/07/13 11:06:08;;;;;;;1.00;0.90;;;28.30;68.70;;;;;;5043948;28;21159;-82
2022/07/13 11:08:35;;;;;;;1.43;1.03;;;28.20;68.60;;;;;;5046990;28;20488;-83
2022/07/13 11:11:11;;;;;;;1.30;1.20;;;28.20;68.90;;;;;;5052489;28;20423;-83
2022/07/13 11:13:37;;;;;;;0.90;0.90;;;28.10;68.60;;;;;;5052002;28;20931;-82
2022/07/13 11:16:06;;;;;;;1.47;1.30;;;28.10;68.60;;;;;;5070848;28;20982;-84
2022/07/13 11:18:36;;;;;;;1.10;1.00;;;28.10;68.70;;;;;;5042263;28;20554;-83
2022/07/13 11:21:12;;;;;;;1.13;1.03;;;28.20;70.10;;;;;;5056189;28;20426;-83
2022/07/13 11:26:55;;;;;;;1.20;1.10;;;28.40;70.30;;;;;;5058816;28;20471;-83
2022/07/13 11:29:23;;;;;;;1.37;1.30;;;28.80;68.80;;;;;;5050479;28;20470;-83
2022/07/13 11:31:57;;;;;;;0.90;0.80;;;29.10;69.00;;;;;;5045721;28;20427;-83
2022/07/13 11:34:26;;;;;;;1.23;1.00;;;29.30;68.60;;;;;;5044895;28;20425;-83
2022/07/13 11:36:54;;;;;;;0.90;0.80;;;29.60;67.90;;;;;;5067720;28;20430;-84
2022/07/13 11:39:33;;;;;;;1.20;1.10;;;29.80;67.60;;;;;;5048737;28;20491;-84
2022/07/13 11:42:01;;;;;;;1.40;1.10;;;30.00;67.00;;;;;;5067761;28;20410;-84
2022/07/13 11:44:29;;;;;;;1.10;1.00;;;30.10;65.00;;;;;;5072854;28;20805;-83
2022/07/13 11:46:57;;;;;;;1.00;0.90;;;30.10;65.10;;;;;;5045501;28;20484;-83
2022/07/13 11:49:23;;;;;;;1.50;1.40;;;30.10;64.90;;;;;;5073174;28;20911;-83
2022/07/13 11:51:49;;;;;;;1.00;0.90;;;30.20;65.20;;;;;;5046155;28;20442;-84
2022/07/13 11:54:20;;;;;;;1.07;0.97;;;30.30;65.60;;;;;;5054036;28;20947;-83
2022/07/13 11:56:47;;;;;;;1.23;0.93;;;30.30;65.00;;;;;;5068066;28;20425;-84
2022/07/13 11:59:14;;;;;;;1.10;1.00;;;30.30;64.10;;;;;;5053813;28;20450;-82
2022/07/13 12:01:49;;;;;;;2.90;1.63;;;30.30;62.60;;;;;;5052112;28;20428;-84
2022/07/13 12:04:22;;;;;;;1.30;1.20;;;30.10;63.80;;;;;;5048786;28;20453;-84
2022/07/13 12:06:48;;;;;;;0.93;0.80;;;30.10;64.90;;;;;;5048941;28;20454;-85
2022/07/13 12:09:18;;;;;;;1.37;1.00;;;30.10;63.50;;;;;;5050393;28;20492;-83
2022/07/13 12:11:44;;;;;;;1.10;1.00;;;30.10;63.40;;;;;;5066274;28;20175;-84
2022/07/13 12:14:12;;;;;;;1.03;1.00;;;30.10;63.10;;;;;;5051254;28;20650;-84
2022/07/13 12:16:38;;;;;;;1.30;0.80;;;30.00;63.50;;;;;;5042716;28;20206;-84
2022/07/13 12:19:08;;;;;;;2.13;1.63;;;30.00;63.80;;;;;;5051813;28;20963;-84
2022/07/13 12:21:34;;;;;;;3.37;1.50;;;30.00;63.90;;;;;;5067227;28;20524;-84
2022/07/13 12:24:00;;;;;;;3.50;1.10;;;30.00;63.90;;;;;;5051348;28;20810;-84
2022/07/13 12:26:26;;;;;;;1.00;0.90;;;30.10;63.60;;;;;;5047444;28;20211;-85
2022/07/13 12:28:53;;;;;;;7.60;1.63;;;30.10;63.30;;;;;;5058403;28;20955;-83
2022/07/13 12:31:20;;;;;;;0.87;0.77;;;30.00;62.30;;;;;;5052924;28;20418;-83
2022/07/13 12:33:48;;;;;;;1.17;1.10;;;30.00;62.80;;;;;;5050074;28;20517;-84
2022/07/13 12:36:15;;;;;;;1.00;0.90;;;29.90;62.60;;;;;;5069485;28;20418;-83
2022/07/13 12:39:01;;;;;;;2.00;1.00;;;29.80;63.00;;;;;;5050540;28;20467;-83
2022/07/13 12:41:34;;;;;;;1.87;1.83;;;29.70;63.50;;;;;;5053563;28;20432;-84
2022/07/13 12:44:04;;;;;;;0.90;0.80;;;29.70;64.10;;;;;;5064660;28;20536;-83
2022/07/13 12:46:52;;;;;;;1.10;1.00;;;29.70;63.60;;;;;;5049335;28;20466;-84
2022/07/13 12:49:18;;;;;;;1.33;1.23;;;29.70;63.50;;;;;;5052180;28;21025;-84
2022/07/13 12:51:54;;;;;;;1.07;0.97;;;29.80;63.70;;;;;;5066410;28;20778;-83
2022/07/13 12:54:42;;;;;;;0.90;0.80;;;29.80;64.50;;;;;;5067894;28;20656;-85
2022/07/13 12:57:21;;;;;;;1.10;1.00;;;29.90;64.40;;;;;;5053974;28;20992;-84
2022/07/13 13:00:11;;;;;;;1.50;1.40;;;29.90;64.70;;;;;;5050246;28;20406;-84
2022/07/13 13:02:37;;;;;;;1.23;1.00;;;29.90;64.60;;;;;;5048904;28;20514;-84
2022/07/13 13:05:06;;;;;;;0.80;0.80;;;30.00;65.70;;;;;;5050745;28;20414;-84
2022/07/13 13:07:35;;;;;;;1.00;0.90;;;30.00;65.00;;;;;;5049909;28;20462;-84